createdAt,value
2023-02-02T00:00:52.537Z,20.67
2023-02-02T00:05:07.716Z,24.73
2023-02-02T00:09:11.293Z,20.30
2023-02-02T00:13:14.272Z,21.15
2023-02-02T00:17:16.296Z,22.00
2023-02-02T00:21:18.251Z,25.83
2023-02-02T00:25:20.016Z,22.85
2023-02-02T00:29:27.824Z,22.20
2023-02-02T00:33:29.854Z,21.08
2023-02-02T00:37:31.985Z,18.25
2023-02-02T00:41:33.934Z,18.15
2023-02-02T00:45:35.845Z,18.48
2023-02-02T00:49:37.574Z,19.70
2023-02-02T00:53:39.511Z,18.50
2023-02-02T00:57:44.287Z,19.35
2023-02-02T01:01:46.869Z,18.80
2023-02-02T01:05:51.305Z,19.30
2023-02-02T01:09:53.439Z,18.23
2023-02-02T01:13:55.440Z,17.17
2023-02-02T01:17:57.878Z,18.70
2023-02-02T01:22:00.118Z,17.65
2023-02-02T01:26:05.684Z,16.60
2023-02-02T01:30:08.689Z,19.58
2023-02-02T01:34:10.665Z,18.55
2023-02-02T01:38:12.427Z,26.55
2023-02-02T01:42:21.276Z,24.58
2023-02-02T01:46:32.074Z,22.50
2023-02-02T01:50:35.428Z,18.77
2023-02-02T01:54:50.228Z,19.35
2023-02-02T01:58:52.856Z,18.50
2023-02-02T02:03:04.347Z,19.75
2023-02-02T02:07:07.246Z,20.98
2023-02-02T02:11:09.334Z,23.23
2023-02-02T02:15:29.722Z,24.92
2023-02-02T02:20:11.082Z,24.25
2023-02-02T02:25:07.206Z,25.13
2023-02-02T02:29:47.889Z,59.85
2023-02-02T02:34:16.692Z,37.30
2023-02-02T02:38:41.011Z,64.30
2023-02-02T02:42:47.440Z,49.40
2023-02-02T02:46:50.987Z,33.53
2023-02-02T02:50:53.640Z,39.33
2023-02-02T02:54:57.689Z,29.65
2023-02-02T02:59:11.924Z,24.52
2023-02-02T03:03:28.070Z,18.13
2023-02-02T03:07:39.347Z,18.45
2023-02-02T03:11:41.575Z,21.45
2023-02-02T03:15:45.125Z,25.15
2023-02-02T03:19:47.157Z,23.60
2023-02-02T03:23:49.161Z,20.33
2023-02-02T03:27:51.682Z,23.60
2023-02-02T03:31:53.611Z,25.05
2023-02-02T03:35:56.177Z,29.50
2023-02-02T03:39:58.226Z,30.10
2023-02-02T03:44:00.202Z,27.05
2023-02-02T03:48:05.872Z,29.00
2023-02-02T03:52:08.058Z,27.20
2023-02-02T03:56:10.657Z,23.35
2023-02-02T04:00:13.287Z,24.98
2023-02-02T04:04:15.694Z,23.42
2023-02-02T04:08:17.697Z,20.38
2023-02-02T04:12:19.731Z,24.27
2023-02-02T04:16:22.312Z,21.60
2023-02-02T04:20:24.606Z,22.20
2023-02-02T04:24:26.547Z,20.13
2023-02-02T04:28:28.906Z,21.30
2023-02-02T04:32:30.843Z,22.00
2023-02-02T04:36:32.465Z,15.80
2023-02-02T04:40:38.860Z,17.20
2023-02-02T04:44:40.912Z,14.20
2023-02-02T04:48:42.969Z,14.20
2023-02-02T04:52:45.099Z,16.67
2023-02-02T04:56:47.202Z,14.10
2023-02-02T05:00:49.232Z,12.55
2023-02-02T05:04:51.326Z,12.02
2023-02-02T05:08:53.270Z,11.57
2023-02-02T05:12:56.013Z,10.40
2023-02-02T05:16:57.997Z,9.32
2023-02-02T05:21:01.677Z,10.85
2023-02-02T05:25:04.066Z,9.43
2023-02-02T05:29:06.771Z,9.93
2023-02-02T05:33:08.679Z,7.72
2023-02-02T05:37:10.681Z,7.90
2023-02-02T05:41:12.631Z,7.78
2023-02-02T05:45:14.963Z,8.60
2023-02-02T05:49:16.963Z,8.25
2023-02-02T05:53:18.971Z,9.45
2023-02-02T05:57:21.001Z,7.95
2023-02-02T06:01:22.900Z,8.73
2023-02-02T06:05:25.503Z,6.43
2023-02-02T06:09:27.526Z,6.78
2023-02-02T06:13:29.524Z,7.55
2023-02-02T06:17:31.544Z,6.18
2023-02-02T06:21:33.577Z,6.10
2023-02-02T06:25:35.638Z,7.30
2023-02-02T06:29:37.631Z,6.57
2023-02-02T06:33:39.225Z,7.40
2023-02-02T06:37:42.127Z,6.75
2023-02-02T06:41:46.584Z,8.77
2023-02-02T06:45:48.574Z,7.40
2023-02-02T06:49:50.538Z,8.23
2023-02-02T06:53:52.506Z,6.95
2023-02-02T06:58:01.556Z,7.85
2023-02-02T07:02:03.679Z,8.70
2023-02-02T07:06:17.343Z,9.27
2023-02-02T07:11:13.485Z,8.73
2023-02-02T07:14:41.266Z,7.28
2023-02-02T07:18:44.577Z,9.68
2023-02-02T07:22:46.531Z,11.50
2023-02-02T07:26:48.603Z,11.45
2023-02-02T07:30:51.023Z,10.32
2023-02-02T07:34:53.036Z,11.65
2023-02-02T07:38:55.188Z,11.10
2023-02-02T07:43:00.554Z,12.90
2023-02-02T07:47:02.583Z,12.40
2023-02-02T07:51:07.600Z,9.88
2023-02-02T07:55:14.742Z,11.20
2023-02-02T07:59:17.229Z,12.63
2023-02-02T08:03:19.551Z,11.98
2023-02-02T08:07:24.554Z,12.32
2023-02-02T08:11:28.090Z,13.23
2023-02-02T08:15:30.288Z,11.60
2023-02-02T08:19:32.367Z,12.43
2023-02-02T08:23:36.517Z,12.15
2023-02-02T08:27:38.444Z,13.13
2023-02-02T08:31:42.055Z,13.27
2023-02-02T08:35:44.560Z,15.38
2023-02-02T08:39:46.600Z,16.77
2023-02-02T08:43:49.765Z,16.15
2023-02-02T08:48:09.337Z,12.70
2023-02-02T08:52:13.225Z,14.15
2023-02-02T08:56:18.561Z,14.57
2023-02-02T09:00:21.009Z,14.23
2023-02-02T09:04:22.947Z,10.77
2023-02-02T09:08:24.966Z,10.48
2023-02-02T09:12:27.247Z,9.40
2023-02-02T09:16:29.936Z,10.70
2023-02-02T09:20:32.307Z,10.82
2023-02-02T09:24:34.305Z,10.60
2023-02-02T09:28:38.949Z,11.82
2023-02-02T09:32:41.324Z,10.70
2023-02-02T09:36:44.773Z,11.82
2023-02-02T09:40:47.540Z,12.07
2023-02-02T09:45:07.549Z,10.57
2023-02-02T09:49:17.134Z,8.73
2023-02-02T09:53:46.054Z,10.65
2023-02-02T09:58:13.668Z,9.60
2023-02-02T10:02:25.094Z,10.13
2023-02-02T10:06:47.684Z,12.52
2023-02-02T10:10:50.816Z,11.73
2023-02-02T10:14:58.353Z,13.27
2023-02-02T10:19:09.874Z,12.90
2023-02-02T10:23:37.875Z,12.70
2023-02-02T10:27:41.297Z,12.18
2023-02-02T10:32:04.423Z,11.60
2023-02-02T10:36:26.804Z,10.07
2023-02-02T10:40:44.075Z,10.27
2023-02-02T10:45:00.456Z,9.85
2023-02-02T10:49:14.661Z,9.68
2023-02-02T10:53:20.566Z,10.15
2023-02-02T10:57:31.364Z,9.30
2023-02-02T11:01:33.497Z,9.82
2023-02-02T11:05:55.129Z,10.90
2023-02-02T11:09:57.172Z,9.68
2023-02-02T11:14:08.199Z,10.05
2023-02-02T11:18:30.491Z,10.70
2023-02-02T11:22:35.295Z,9.65
2023-02-02T11:27:14.101Z,8.98
2023-02-02T11:31:32.543Z,11.57
2023-02-02T11:35:34.677Z,11.38
2023-02-02T11:39:36.706Z,12.30
2023-02-02T11:43:49.186Z,14.45
2023-02-02T11:47:52.252Z,16.60
2023-02-02T11:52:00.344Z,17.13
2023-02-02T11:56:08.054Z,19.25
2023-02-02T12:00:10.113Z,15.45
2023-02-02T12:04:16.075Z,20.92
2023-02-02T12:08:19.042Z,34.70
2023-02-02T12:12:39.120Z,35.22
2023-02-02T12:16:58.022Z,17.58
2023-02-02T12:21:21.531Z,16.40
2023-02-02T12:25:29.563Z,16.65
2023-02-02T12:29:43.587Z,18.70
2023-02-02T12:33:51.844Z,15.95
2023-02-02T12:38:32.479Z,10.52
2023-02-02T12:42:48.704Z,40.80
2023-02-02T12:47:27.271Z,34.10
2023-02-02T12:51:35.389Z,20.95
2023-02-02T12:55:52.440Z,19.10
2023-02-02T13:00:07.204Z,14.75
2023-02-02T13:04:27.452Z,16.38
2023-02-02T13:08:42.786Z,15.98
2023-02-02T13:12:53.811Z,16.05
2023-02-02T13:17:09.860Z,15.63
2023-02-02T13:21:16.825Z,12.77
2023-02-02T13:25:25.455Z,10.50
2023-02-02T13:29:48.159Z,6.82
2023-02-02T13:34:03.552Z,7.35
2023-02-02T13:38:25.154Z,7.30
2023-02-02T13:42:32.897Z,8.07
2023-02-02T13:47:09.588Z,10.43
2023-02-02T13:51:53.830Z,10.73
2023-02-02T13:56:14.015Z,11.75
2023-02-02T14:00:20.525Z,8.68
2023-02-02T14:04:27.439Z,6.10
2023-02-02T14:08:31.372Z,6.82
2023-02-02T14:12:35.550Z,6.00
2023-02-02T14:16:37.480Z,4.60
2023-02-02T14:20:46.698Z,5.55
2023-02-02T14:24:50.610Z,5.93
2023-02-02T14:28:52.637Z,4.80
2023-02-02T14:33:20.350Z,5.65
2023-02-02T14:37:25.360Z,5.78
2023-02-02T14:41:53.116Z,5.72
2023-02-02T14:46:07.585Z,5.18
2023-02-02T14:50:15.916Z,5.30
2023-02-02T14:54:24.427Z,4.25
2023-02-02T14:58:32.043Z,4.82
2023-02-02T15:02:37.996Z,4.77
2023-02-02T15:06:42.399Z,6.72
2023-02-02T15:10:52.011Z,6.75
2023-02-02T15:15:08.155Z,7.97
2023-02-02T15:19:28.528Z,9.05
2023-02-02T15:23:36.100Z,7.32
2023-02-02T15:27:51.531Z,8.40
2023-02-02T15:32:00.364Z,7.38
2023-02-02T15:36:18.507Z,4.47
2023-02-02T15:40:24.365Z,2.80
2023-02-02T15:44:28.420Z,3.97
2023-02-02T15:48:32.468Z,7.07
2023-02-02T15:52:37.891Z,4.90
2023-02-02T15:56:39.822Z,4.05
2023-02-02T16:00:41.852Z,4.05
2023-02-02T16:04:43.955Z,5.38
2023-02-02T16:08:47.643Z,2.72
2023-02-02T16:12:49.734Z,2.70
2023-02-02T16:16:52.565Z,2.88
2023-02-02T16:20:57.878Z,3.13
2023-02-02T16:25:06.014Z,2.65
2023-02-02T16:29:18.442Z,3.25
2023-02-02T16:33:45.574Z,2.80
2023-02-02T16:37:47.547Z,3.10
2023-02-02T16:41:50.805Z,2.47
2023-02-02T16:45:56.631Z,2.97
2023-02-02T16:50:07.763Z,3.40
2023-02-02T16:54:09.674Z,2.85
2023-02-02T16:58:18.265Z,2.30
2023-02-02T17:02:30.481Z,3.88
2023-02-02T17:06:50.432Z,3.30
2023-02-02T17:11:26.281Z,4.30
2023-02-02T17:15:35.699Z,3.08
2023-02-02T17:19:37.816Z,3.72
2023-02-02T17:23:41.078Z,2.95
2023-02-02T17:27:44.112Z,3.20
2023-02-02T17:31:46.235Z,4.53
2023-02-02T17:35:55.866Z,4.47
2023-02-02T17:39:58.270Z,3.88
2023-02-02T17:44:00.487Z,4.72
2023-02-02T17:48:03.846Z,7.30
2023-02-02T17:52:05.818Z,6.85
2023-02-02T17:56:07.876Z,4.45
2023-02-02T18:00:10.655Z,4.75
2023-02-02T18:04:14.907Z,4.28
2023-02-02T18:08:17.126Z,4.53
2023-02-02T18:12:19.839Z,5.05
2023-02-02T18:16:22.408Z,5.05
2023-02-02T18:20:24.702Z,8.15
2023-02-02T18:24:26.892Z,6.45
2023-02-02T18:28:28.812Z,3.67
2023-02-02T18:32:30.854Z,4.03
2023-02-02T18:36:34.049Z,4.70
2023-02-02T18:40:36.087Z,5.85
2023-02-02T18:44:38.770Z,6.20
2023-02-02T18:48:42.215Z,6.20
2023-02-02T18:52:44.523Z,6.35
2023-02-02T18:56:46.495Z,6.85
2023-02-02T19:00:49.299Z,6.43
2023-02-02T19:05:09.963Z,6.38
2023-02-02T19:09:17.309Z,6.95
2023-02-02T19:13:21.650Z,5.10
2023-02-02T19:17:24.636Z,5.72
2023-02-02T19:21:30.326Z,6.22
2023-02-02T19:25:32.571Z,5.70
2023-02-02T19:29:36.092Z,7.68
2023-02-02T19:33:40.526Z,6.63
2023-02-02T19:37:43.300Z,5.85
2023-02-02T19:41:45.373Z,4.95
2023-02-02T19:45:47.540Z,5.93
2023-02-02T19:49:49.641Z,5.75
2023-02-02T19:53:59.387Z,5.68
2023-02-02T19:58:13.038Z,5.85
2023-02-02T20:02:54.199Z,5.47
2023-02-02T20:06:59.659Z,5.82
2023-02-02T20:11:31.859Z,5.70
2023-02-02T20:15:36.169Z,6.07
2023-02-02T20:19:41.723Z,7.35
2023-02-02T20:23:45.432Z,7.03
2023-02-02T20:27:47.442Z,7.65
2023-02-02T20:31:52.672Z,6.80
2023-02-02T20:35:55.009Z,5.90
2023-02-02T20:39:58.769Z,7.45
2023-02-02T20:44:00.721Z,5.93
2023-02-02T20:48:02.767Z,6.32
2023-02-02T20:52:10.723Z,6.13
2023-02-02T20:56:12.758Z,5.35
2023-02-02T21:00:16.737Z,6.25
2023-02-02T21:04:19.648Z,6.22
2023-02-02T21:08:21.596Z,5.95
2023-02-02T21:12:25.559Z,5.95
2023-02-02T21:16:28.719Z,7.35
2023-02-02T21:20:30.714Z,8.02
2023-02-02T21:24:32.641Z,6.22
2023-02-02T21:28:34.579Z,6.38
2023-02-02T21:32:36.969Z,6.07
2023-02-02T21:36:44.459Z,7.68
2023-02-02T21:40:47.907Z,7.50
2023-02-02T21:45:07.348Z,7.60
2023-02-02T21:49:25.386Z,6.93
2023-02-02T21:53:27.609Z,8.32
2023-02-02T21:57:37.047Z,8.27
2023-02-02T22:01:40.223Z,9.98
2023-02-02T22:05:42.546Z,10.00
2023-02-02T22:09:45.603Z,10.70
2023-02-02T22:13:48.864Z,11.35
2023-02-02T22:17:51.053Z,11.90
2023-02-02T22:21:55.082Z,12.73
2023-02-02T22:25:58.565Z,9.82
2023-02-02T22:30:20.990Z,11.65
2023-02-02T22:34:23.258Z,10.77
2023-02-02T22:38:25.770Z,11.63
2023-02-02T22:42:28.021Z,10.77
2023-02-02T22:46:30.191Z,9.55
2023-02-02T22:50:34.917Z,10.80
2023-02-02T22:54:37.114Z,11.27
2023-02-02T22:58:39.298Z,11.80
2023-02-02T23:02:42.235Z,10.65
2023-02-02T23:06:44.674Z,11.75
2023-02-02T23:10:46.660Z,10.70
2023-02-02T23:14:48.757Z,11.43
2023-02-02T23:18:50.803Z,11.35
2023-02-02T23:22:52.951Z,9.82
2023-02-02T23:26:55.138Z,11.63
2023-02-02T23:30:59.328Z,10.63
2023-02-02T23:35:01.706Z,9.10
2023-02-02T23:39:03.940Z,8.25
2023-02-02T23:43:06.001Z,9.82
2023-02-02T23:47:08.582Z,10.77
2023-02-02T23:51:11.495Z,8.70
2023-02-02T23:55:14.982Z,10.88
2023-02-02T23:59:17.205Z,13.25
